sensor_id;sensor_type;location;lat;lon;timestamp;P1;durP1;ratioP1;P2;durP2;ratioP2
17496;SDS011;62150;43.582;1.456;2022-08-11T06:19:04;10.27;;;6.15;;
17496;SDS011;62150;43.582;1.456;2022-08-11T06:21:33;9.95;;;6.00;;
17496;SDS011;62150;43.582;1.456;2022-08-11T06:24:02;11.13;;;6.03;;
17496;SDS011;62150;43.582;1.456;2022-08-11T06:26:36;9.82;;;6.10;;
17496;SDS011;62150;43.582;1.456;2022-08-11T06:29:05;10.38;;;6.07;;
17496;SDS011;62150;43.582;1.456;2022-08-11T06:31:35;10.57;;;6.55;;
17496;SDS011;62150;43.582;1.456;2022-08-11T06:34:08;10.45;;;6.40;;
17496;SDS011;62150;43.582;1.456;2022-08-11T06:36:42;11.35;;;6.80;;
17496;SDS011;62150;43.582;1.456;2022-08-11T06:39:19;9.40;;;6.18;;
17496;SDS011;62150;43.582;1.456;2022-08-11T06:41:53;9.52;;;5.90;;
17496;SDS011;62150;43.582;1.456;2022-08-11T06:44:29;10.70;;;6.50;;
17496;SDS011;62150;43.582;1.456;2022-08-11T06:47:04;11.27;;;6.70;;
17496;SDS011;62150;43.582;1.456;2022-08-11T06:49:37;11.57;;;6.47;;
17496;SDS011;62150;43.582;1.456;2022-08-11T06:52:28;10.30;;;6.15;;
17496;SDS011;62150;43.582;1.456;2022-08-11T06:55:04;10.43;;;6.53;;
17496;SDS011;62150;43.582;1.456;2022-08-11T06:57:34;10.82;;;6.50;;
17496;SDS011;62150;43.582;1.456;2022-08-11T07:00:21;10.32;;;6.28;;
17496;SDS011;62150;43.582;1.456;2022-08-11T07:02:56;10.60;;;6.28;;
17496;SDS011;62150;43.582;1.456;2022-08-11T07:05:30;10.75;;;6.35;;
17496;SDS011;62150;43.582;1.456;2022-08-11T07:08:24;10.20;;;6.32;;
17496;SDS011;62150;43.582;1.456;2022-08-11T07:11:51;9.68;;;6.10;;
17496;SDS011;62150;43.582;1.456;2022-08-11T07:14:53;12.00;;;5.75;;
17496;SDS011;62150;43.582;1.456;2022-08-11T07:17:40;9.80;;;6.22;;
17496;SDS011;62150;43.582;1.456;2022-08-11T07:20:13;10.18;;;6.60;;
17496;SDS011;62150;43.582;1.456;2022-08-11T07:23:01;10.27;;;6.28;;
17496;SDS011;62150;43.582;1.456;2022-08-11T07:25:51;10.32;;;6.20;;
17496;SDS011;62150;43.582;1.456;2022-08-11T07:28:39;10.75;;;6.70;;
17496;SDS011;62150;43.582;1.456;2022-08-11T07:31:25;10.43;;;6.38;;
17496;SDS011;62150;43.582;1.456;2022-08-11T07:34:04;10.52;;;6.40;;
17496;SDS011;62150;43.582;1.456;2022-08-11T07:36:39;10.90;;;6.38;;
17496;SDS011;62150;43.582;1.456;2022-08-11T07:39:14;10.35;;;5.85;;
17496;SDS011;62150;43.582;1.456;2022-08-11T07:41:45;10.88;;;6.47;;
17496;SDS011;62150;43.582;1.456;2022-08-11T07:44:14;10.27;;;6.43;;
17496;SDS011;62150;43.582;1.456;2022-08-11T07:46:43;10.18;;;6.70;;
17496;SDS011;62150;43.582;1.456;2022-08-11T07:49:30;10.60;;;6.50;;
17496;SDS011;62150;43.582;1.456;2022-08-11T07:52:18;10.23;;;6.05;;
17496;SDS011;62150;43.582;1.456;2022-08-11T07:54:53;10.27;;;6.30;;
17496;SDS011;62150;43.582;1.456;2022-08-11T07:57:23;9.93;;;6.15;;
17496;SDS011;62150;43.582;1.456;2022-08-11T08:00:09;10.35;;;6.40;;
17496;SDS011;62150;43.582;1.456;2022-08-11T08:02:54;10.00;;;6.22;;
17496;SDS011;62150;43.582;1.456;2022-08-11T08:05:41;10.18;;;6.53;;
17496;SDS011;62150;43.582;1.456;2022-08-11T08:08:28;10.70;;;6.47;;
17496;SDS011;62150;43.582;1.456;2022-08-11T08:11:16;10.60;;;6.25;;
17496;SDS011;62150;43.582;1.456;2022-08-11T08:14:04;10.73;;;6.45;;
17496;SDS011;62150;43.582;1.456;2022-08-11T08:16:50;10.60;;;6.40;;
17496;SDS011;62150;43.582;1.456;2022-08-11T08:19:35;10.20;;;6.57;;
17496;SDS011;62150;43.582;1.456;2022-08-11T08:22:03;10.45;;;6.47;;
17496;SDS011;62150;43.582;1.456;2022-08-11T08:24:31;10.25;;;6.05;;
17496;SDS011;62150;43.582;1.456;2022-08-11T08:27:01;11.68;;;6.50;;
17496;SDS011;62150;43.582;1.456;2022-08-11T08:29:30;11.02;;;6.28;;
17496;SDS011;62150;43.582;1.456;2022-08-11T08:32:17;10.40;;;6.30;;
17496;SDS011;62150;43.582;1.456;2022-08-11T08:34:45;9.70;;;6.40;;
17496;SDS011;62150;43.582;1.456;2022-08-11T08:37:16;10.30;;;6.50;;
17496;SDS011;62150;43.582;1.456;2022-08-11T08:39:45;10.00;;;6.32;;
17496;SDS011;62150;43.582;1.456;2022-08-11T08:42:17;10.07;;;6.50;;
17496;SDS011;62150;43.582;1.456;2022-08-11T08:44:49;10.02;;;6.15;;
17496;SDS011;62150;43.582;1.456;2022-08-11T08:47:22;9.88;;;6.10;;
17496;SDS011;62150;43.582;1.456;2022-08-11T08:49:59;10.30;;;6.70;;
17496;SDS011;62150;43.582;1.456;2022-08-11T08:52:28;10.32;;;6.43;;
17496;SDS011;62150;43.582;1.456;2022-08-11T08:55:01;9.95;;;6.28;;
17496;SDS011;62150;43.582;1.456;2022-08-11T08:57:33;10.85;;;6.22;;
17496;SDS011;62150;43.582;1.456;2022-08-11T09:00:03;9.95;;;6.55;;
17496;SDS011;62150;43.582;1.456;2022-08-11T09:02:32;9.93;;;6.25;;
17496;SDS011;62150;43.582;1.456;2022-08-11T09:05:00;9.65;;;6.13;;
17496;SDS011;62150;43.582;1.456;2022-08-11T09:07:32;10.32;;;6.53;;
17496;SDS011;62150;43.582;1.456;2022-08-11T09:10:00;10.35;;;6.38;;
17496;SDS011;62150;43.582;1.456;2022-08-11T09:12:30;11.43;;;6.47;;
17496;SDS011;62150;43.582;1.456;2022-08-11T09:15:02;11.15;;;6.50;;
17496;SDS011;62150;43.582;1.456;2022-08-11T09:17:34;10.75;;;6.05;;
17496;SDS011;62150;43.582;1.456;2022-08-11T09:20:05;9.00;;;6.05;;
17496;SDS011;62150;43.582;1.456;2022-08-11T09:22:37;10.07;;;6.40;;
17496;SDS011;62150;43.582;1.456;2022-08-11T09:25:25;10.95;;;6.22;;
17496;SDS011;62150;43.582;1.456;2022-08-11T09:28:14;11.00;;;6.35;;
17496;SDS011;62150;43.582;1.456;2022-08-11T09:30:43;10.25;;;6.10;;
17496;SDS011;62150;43.582;1.456;2022-08-11T09:33:13;9.82;;;6.40;;
17496;SDS011;62150;43.582;1.456;2022-08-11T09:35:42;10.50;;;6.32;;
17496;SDS011;62150;43.582;1.456;2022-08-11T09:38:12;9.73;;;5.78;;
17496;SDS011;62150;43.582;1.456;2022-08-11T09:41:14;9.80;;;5.82;;
17496;SDS011;62150;43.582;1.456;2022-08-11T09:43:44;9.75;;;6.32;;
17496;SDS011;62150;43.582;1.456;2022-08-11T09:46:30;9.52;;;6.13;;
17496;SDS011;62150;43.582;1.456;2022-08-11T09:48:59;10.10;;;5.85;;
17496;SDS011;62150;43.582;1.456;2022-08-11T09:51:29;10.77;;;6.00;;
17496;SDS011;62150;43.582;1.456;2022-08-11T09:53:59;9.77;;;6.28;;
17496;SDS011;62150;43.582;1.456;2022-08-11T09:56:30;10.15;;;6.30;;
17496;SDS011;62150;43.582;1.456;2022-08-11T09:59:19;9.68;;;5.97;;
17496;SDS011;62150;43.582;1.456;2022-08-11T10:01:49;9.70;;;5.88;;
17496;SDS011;62150;43.582;1.456;2022-08-11T10:04:23;8.98;;;5.72;;
17496;SDS011;62150;43.582;1.456;2022-08-11T10:06:56;9.80;;;6.20;;
17496;SDS011;62150;43.582;1.456;2022-08-11T10:09:27;10.40;;;6.10;;
17496;SDS011;62150;43.582;1.456;2022-08-11T10:12:01;9.85;;;5.82;;
17496;SDS011;62150;43.582;1.456;2022-08-11T10:14:33;9.43;;;5.82;;
17496;SDS011;62150;43.582;1.456;2022-08-11T10:17:24;9.57;;;5.90;;
17496;SDS011;62150;43.582;1.456;2022-08-11T10:19:55;9.40;;;6.15;;
17496;SDS011;62150;43.582;1.456;2022-08-11T10:22:27;9.13;;;5.40;;
17496;SDS011;62150;43.582;1.456;2022-08-11T10:25:13;10.05;;;5.75;;
17496;SDS011;62150;43.582;1.456;2022-08-11T10:27:59;9.75;;;5.55;;
17496;SDS011;62150;43.582;1.456;2022-08-11T10:30:33;9.90;;;6.00;;
17496;SDS011;62150;43.582;1.456;2022-08-11T10:33:20;9.07;;;5.75;;
17496;SDS011;62150;43.582;1.456;2022-08-11T10:36:06;9.25;;;5.90;;
17496;SDS011;62150;43.582;1.456;2022-08-11T10:38:33;9.88;;;5.60;;
17496;SDS011;62150;43.582;1.456;2022-08-11T10:41:02;10.73;;;5.65;;
17496;SDS011;62150;43.582;1.456;2022-08-11T10:43:47;8.57;;;5.28;;
17496;SDS011;62150;43.582;1.456;2022-08-11T10:46:18;9.32;;;5.90;;
17496;SDS011;62150;43.582;1.456;2022-08-11T10:49:04;8.75;;;5.20;;
17496;SDS011;62150;43.582;1.456;2022-08-11T10:51:33;9.45;;;5.78;;
17496;SDS011;62150;43.582;1.456;2022-08-11T10:54:19;10.13;;;5.50;;
17496;SDS011;62150;43.582;1.456;2022-08-11T10:57:05;9.30;;;5.72;;
17496;SDS011;62150;43.582;1.456;2022-08-11T10:59:51;8.95;;;5.50;;
17496;SDS011;62150;43.582;1.456;2022-08-11T11:02:21;9.00;;;5.38;;
17496;SDS011;62150;43.582;1.456;2022-08-11T11:04:56;9.88;;;5.28;;
17496;SDS011;62150;43.582;1.456;2022-08-11T11:07:35;9.02;;;5.45;;
17496;SDS011;62150;43.582;1.456;2022-08-11T11:10:06;8.75;;;5.40;;
17496;SDS011;62150;43.582;1.456;2022-08-11T11:12:35;8.30;;;5.03;;
17496;SDS011;62150;43.582;1.456;2022-08-11T11:15:25;8.82;;;5.20;;
17496;SDS011;62150;43.582;1.456;2022-08-11T11:18:16;8.88;;;5.40;;
17496;SDS011;62150;43.582;1.456;2022-08-11T11:20:47;9.23;;;5.18;;
17496;SDS011;62150;43.582;1.456;2022-08-11T11:23:19;11.02;;;5.45;;
17496;SDS011;62150;43.582;1.456;2022-08-11T11:31:58;8.98;;;5.47;;
17496;SDS011;62150;43.582;1.456;2022-08-11T11:37:44;9.85;;;5.38;;
17496;SDS011;62150;43.582;1.456;2022-08-11T11:40:15;8.98;;;5.55;;
17496;SDS011;62150;43.582;1.456;2022-08-11T11:42:45;8.45;;;5.53;;
17496;SDS011;62150;43.582;1.456;2022-08-11T11:45:16;9.15;;;5.40;;
17496;SDS011;62150;43.582;1.456;2022-08-11T11:47:45;9.90;;;5.45;;
17496;SDS011;62150;43.582;1.456;2022-08-11T11:50:17;8.93;;;5.70;;
17496;SDS011;62150;43.582;1.456;2022-08-11T11:52:50;9.15;;;5.60;;
17496;SDS011;62150;43.582;1.456;2022-08-11T11:55:20;9.23;;;5.55;;
17496;SDS011;62150;43.582;1.456;2022-08-11T11:57:49;9.30;;;5.72;;
17496;SDS011;62150;43.582;1.456;2022-08-11T12:00:36;7.93;;;4.95;;
17496;SDS011;62150;43.582;1.456;2022-08-11T12:03:23;8.45;;;5.63;;
17496;SDS011;62150;43.582;1.456;2022-08-11T12:05:53;8.50;;;5.40;;
17496;SDS011;62150;43.582;1.456;2022-08-11T12:08:21;10.80;;;5.57;;
17496;SDS011;62150;43.582;1.456;2022-08-11T12:10:50;9.20;;;5.70;;
17496;SDS011;62150;43.582;1.456;2022-08-11T12:13:40;8.98;;;5.78;;
17496;SDS011;62150;43.582;1.456;2022-08-11T12:16:10;9.10;;;5.70;;
17496;SDS011;62150;43.582;1.456;2022-08-11T12:18:39;10.13;;;6.18;;
17496;SDS011;62150;43.582;1.456;2022-08-11T12:21:09;9.43;;;5.88;;
17496;SDS011;62150;43.582;1.456;2022-08-11T12:23:39;8.52;;;5.57;;
17496;SDS011;62150;43.582;1.456;2022-08-11T12:26:26;9.30;;;5.82;;
17496;SDS011;62150;43.582;1.456;2022-08-11T12:29:18;9.10;;;6.00;;
17496;SDS011;62150;43.582;1.456;2022-08-11T12:31:49;9.50;;;5.78;;
17496;SDS011;62150;43.582;1.456;2022-08-11T12:34:18;9.32;;;5.90;;
17496;SDS011;62150;43.582;1.456;2022-08-11T12:36:50;9.13;;;5.60;;
17496;SDS011;62150;43.582;1.456;2022-08-11T12:39:22;9.02;;;6.00;;
17496;SDS011;62150;43.582;1.456;2022-08-11T12:42:08;12.48;;;5.97;;
17496;SDS011;62150;43.582;1.456;2022-08-11T12:44:56;9.13;;;5.70;;
17496;SDS011;62150;43.582;1.456;2022-08-11T12:47:42;9.70;;;5.90;;
17496;SDS011;62150;43.582;1.456;2022-08-11T12:50:33;10.25;;;6.30;;
17496;SDS011;62150;43.582;1.456;2022-08-11T12:53:21;14.43;;;6.40;;
17496;SDS011;62150;43.582;1.456;2022-08-11T12:55:51;11.15;;;5.82;;
17496;SDS011;62150;43.582;1.456;2022-08-11T12:58:39;9.48;;;5.93;;
17496;SDS011;62150;43.582;1.456;2022-08-11T13:01:09;9.15;;;5.90;;
17496;SDS011;62150;43.582;1.456;2022-08-11T13:03:54;9.25;;;5.70;;
17496;SDS011;62150;43.582;1.456;2022-08-11T13:06:40;9.63;;;5.75;;
17496;SDS011;62150;43.582;1.456;2022-08-11T13:09:09;9.65;;;5.72;;
17496;SDS011;62150;43.582;1.456;2022-08-11T13:11:38;9.80;;;5.88;;
17496;SDS011;62150;43.582;1.456;2022-08-11T13:14:24;9.25;;;5.63;;
17496;SDS011;62150;43.582;1.456;2022-08-11T13:16:52;8.88;;;5.65;;
17496;SDS011;62150;43.582;1.456;2022-08-11T13:19:38;9.25;;;5.97;;
17496;SDS011;62150;43.582;1.456;2022-08-11T13:22:08;9.70;;;6.00;;
17496;SDS011;62150;43.582;1.456;2022-08-11T13:24:38;9.23;;;5.70;;
17496;SDS011;62150;43.582;1.456;2022-08-11T13:27:06;8.77;;;5.85;;
17496;SDS011;62150;43.582;1.456;2022-08-11T13:29:36;8.55;;;5.60;;
17496;SDS011;62150;43.582;1.456;2022-08-11T13:32:06;9.25;;;5.97;;
17496;SDS011;62150;43.582;1.456;2022-08-11T13:34:35;9.43;;;5.95;;
17496;SDS011;62150;43.582;1.456;2022-08-11T13:37:06;9.02;;;5.88;;
17496;SDS011;62150;43.582;1.456;2022-08-11T13:39:39;10.18;;;5.72;;
17496;SDS011;62150;43.582;1.456;2022-08-11T13:42:11;9.77;;;5.80;;
17496;SDS011;62150;43.582;1.456;2022-08-11T13:44:44;9.57;;;5.88;;
17496;SDS011;62150;43.582;1.456;2022-08-11T13:47:13;9.00;;;5.90;;
